Terminal Aerodrome Forecast
Issued by NWS

Current Version | Previous Version | Text Only | Print | Product List | Glossary Off
Versions: 1 2 3 4 5 6 7 8 9 10 11 12 13 14 15 16

000
FTUS41 KILN 170537
TAFLCK
TAF
KLCK 170537Z 1706/1806 17006KT P6SM OVC080
     FM171100 16007KT P6SM BKN200
     FM171400 20008KT P6SM SCT150
     FM171600 21010G18KT P6SM SCT200
     FM180000 21007KT P6SM FEW250=

USA.gov is the U.S. government's official web portal to all federal, state and local government web resources and services.